Normandie — FNNO — position and weather

sailwx.info

Track history (hours):
 
Tides and Currents Weather Stations Pressure Air Temp Water Temp Dewpoint Dewpoint Depression Visibility Wind Speed Wind Dir Waves Ship Positions

Normandie

Operator: Brittany Ferries

Last reported at 2017-Mar-27 06:33 UTC. Time now 2017-Mar-27 06:50 UTC.
Position N 50°49' W 001°06'.

Length 161 m; beam 27 m.

Type: Passenger vessel. MMSI: 227273000.

Date/timePositionNaut miles runAvg speedWind from/ knotsBaromVisibWave heightAir tempDewpointWater temp
2017-Mar-27 06:33N 50°49' W 001°06'3 2.9
2017-Mar-27 05:34N 50°46' W 001°05'10 9.8
2017-Mar-27 04:33N 50°37' W 000°58'1514.6
2017-Mar-27 03:33N 50°24' W 000°49'1110.8
2017-Mar-27 02:33N 50°13' W 000°45'1111.0
2017-Mar-27 01:33N 50°03' W 000°41'1111.4
2017-Mar-27 00:33N 49°51' W 000°38'1110.9
2017-Mar-26 23:33N 49°44' W 000°26'1111.0
2017-Mar-26 22:33N 49°33' W 000°21'1110.8
2017-Mar-26 21:33N 49°23' W 000°16'6 5.7
2017-Mar-26 20:33N 49°17' W 000°15'0 0.0
2017-Mar-26 19:33N 49°17' W 000°15'1110.8
2017-Mar-26 18:33N 49°28' W 000°17'1919.1
2017-Mar-26 17:33N 49°46' W 000°26'1919.3
2017-Mar-26 16:34N 50°04' W 000°36'2019.9
2017-Mar-26 15:33N 50°23' W 000°48'1919.1
2017-Mar-26 14:33N 50°41' W 000°58'9 9.2
2017-Mar-26 13:33N 50°49' W 001°06'0 0.1
2017-Mar-26 12:34N 50°49' W 001°06'1313.1
2017-Mar-26 11:33N 50°37' W 000°57'2320.0
2017-Mar-26 10:26N 50°15' W 000°46'1919.9
2017-Mar-26 09:28N 49°58' W 000°35'1819.5
2017-Mar-26 08:33N 49°41' W 000°25'1919.5
2017-Mar-26 07:33N 49°22' W 000°15'5 5.1
2017-Mar-26 06:33N 49°17' W 000°15'0 0.1
2017-Mar-26 05:33N 49°17' W 000°15'1413.9
2017-Mar-26 04:33N 49°31' W 000°19'1515.1
2017-Mar-26 03:34N 49°45' W 000°28'1414.0
2017-Mar-26 02:33N 49°58' W 000°36'1414.4
2017-Mar-26 01:33N 50°11' W 000°43'1714.8
2017-Mar-26 00:26N 50°28' W 000°48'1314.5
2017-Mar-25 23:33N 50°40' W 000°56'1111.1
2017-Mar-25 22:33N 50°49' W 001°06'0 0.0
2017-Mar-25 21:34N 50°49' W 001°06'7 7.1
2017-Mar-25 20:34N 50°42' W 001°01'3918.9
2017-Mar-25 18:29N 50°06' W 000°38'1718.1
2017-Mar-25 17:33N 49°50' W 000°31'1817.9
2017-Mar-25 16:34N 49°33' W 000°22'1616.2
2017-Mar-25 15:33N 49°17' W 000°15'0 0.1
2017-Mar-25 14:33N 49°17' W 000°15'1 0.8
2017-Mar-25 13:34N 49°18' W 000°15'1817.7
2017-Mar-25 12:34N 49°35' W 000°21'1918.6
2017-Mar-25 11:33N 49°52' W 000°33'1918.8
2017-Mar-25 10:34N 50°10' W 000°44'1918.7
2017-Mar-25 09:33N 50°28' W 000°53'1918.9
2017-Mar-25 08:34N 50°45' W 001°05'4 3.9
2017-Mar-25 07:33N 50°49' W 001°06'0 0.1
2017-Mar-25 06:33N 50°49' W 001°06'1212.5
2017-Mar-25 05:34N 50°37' W 000°58'1815.7
2017-Mar-25 04:26N 50°21' W 000°47'1211.9
2017-Mar-25 03:23N 50°09' W 000°41'910.4
2017-Mar-25 02:33N 50°01' W 000°36'1010.3
2017-Mar-25 01:33N 49°51' W 000°32'1110.7
2017-Mar-25 00:33N 49°41' W 000°26'1110.7
2017-Mar-24 23:33N 49°31' W 000°20'1110.7
2017-Mar-24 22:33N 49°21' W 000°15'4 3.8
2017-Mar-24 21:33N 49°17' W 000°15'0 0.0
2017-Mar-24 20:33N 49°17' W 000°15'1110.7
2017-Mar-24 19:34N 49°28' W 000°17'1818.2
2017-Mar-24 18:34N 49°45' W 000°27'2019.7
2017-Mar-24 17:34N 50°03' W 000°38'2520.0
2017-Mar-24 16:19N 50°27' W 000°51'1519.4
2017-Mar-24 15:34N 50°41' W 000°58'9 9.3
2017-Mar-24 14:33N 50°49' W 001°06'0 0.0
2017-Mar-24 13:34N 50°49' W 001°06'4 4.2
2017-Mar-24 12:33N 50°45' W 001°05'1817.6
2017-Mar-24 11:33N 50°29' W 000°52'2119.2
2017-Mar-24 10:29N 50°09' W 000°43'1819.8
2017-Mar-24 09:33N 49°52' W 000°33'1919.5
2017-Mar-24 08:33N 49°34' W 000°22'1717.0
2017-Mar-24 07:34N 49°17' W 000°15'0 0.0
2017-Mar-24 06:33N 49°17' W 000°15'0 0.0
2017-Mar-24 05:33N 49°17' W 000°15'1414.2
2017-Mar-24 04:34N 49°31' W 000°20'1615.8
2017-Mar-24 03:34N 49°46' W 000°28'1615.8
2017-Mar-24 02:34N 50°01' W 000°36'3316.7
2017-Mar-24 00:33N 50°32' W 000°55'1616.0
2017-Mar-23 23:33N 50°47' W 001°06'2 2.1
2017-Mar-23 22:33N 50°49' W 001°06'0 0.0
2017-Mar-23 21:33N 50°49' W 001°06'1110.5
2017-Mar-23 20:33N 50°39' W 000°59'3919.2
2017-Mar-23 18:31N 50°02' W 000°36'1818.9
2017-Mar-23 17:34N 49°46' W 000°27'1919.4
2017-Mar-23 16:33N 49°27' W 000°17'10 9.9
2017-Mar-23 15:33N 49°17' W 000°15'0 0.0
2017-Mar-23 14:33N 49°17' W 000°15'0 0.5
2017-Mar-23 13:33N 49°18' W 000°15'1818.2
2017-Mar-23 12:33N 49°35' W 000°23'1919.3
2017-Mar-23 11:34N 49°53' W 000°34'4119.8
2017-Mar-23 09:30N 50°31' W 000°55'1717.9
2017-Mar-23 08:33N 50°47' W 001°06'2 1.8
2017-Mar-23 07:33N 50°49' W 001°06'0 0.0
2017-Mar-23 06:34N 50°49' W 001°06'1111.0
2017-Mar-23 05:33N 50°39' W 000°59'3511.8
2017-Mar-23 02:33N 50°06' W 000°37'1111.4
2017-Mar-23 01:33N 49°55' W 000°32'1212.1
2017-Mar-23 00:33N 49°43' W 000°27'1212.1
2017-Mar-22 23:33N 49°32' W 000°21'1212.1
2017-Mar-22 22:33N 49°21' W 000°15'3 3.3
2017-Mar-22 21:33N 49°17' W 000°15'0 0.0
2017-Mar-22 20:33N 49°17' W 000°15'0 0.0
2017-Mar-22 19:33N 49°17' W 000°15'0 0.0
2017-Mar-22 18:34N 49°17' W 000°15'0 0.0
2017-Mar-22 17:34N 49°17' W 000°15'0 0.0
2017-Mar-22 16:33N 49°17' W 000°15'0 0.0
2017-Mar-22 15:33N 49°17' W 000°15'0 0.0
2017-Mar-22 14:33N 49°17' W 000°15'4 3.7
2017-Mar-22 13:33N 49°21' W 000°14'1717.3
2017-Mar-22 12:34N 49°37' W 000°24'2019.6
2017-Mar-22 11:33N 49°55' W 000°36'3919.2
2017-Mar-22 09:32N 50°32' W 000°55'1717.1
2017-Mar-22 08:33N 50°47' W 001°06'2 1.7
2017-Mar-22 07:34N 50°49' W 001°06'0 0.0
2017-Mar-22 06:34N 50°49' W 001°06'1111.0
2017-Mar-22 05:33N 50°39' W 000°58'3912.5
2017-Mar-22 02:26N 50°03' W 000°36'910.7
2017-Mar-22 01:33N 49°54' W 000°31'1110.8
2017-Mar-22 00:33N 49°44' W 000°25'1111.2
2017-Mar-21 23:33N 49°33' W 000°21'1111.4
2017-Mar-21 22:33N 49°22' W 000°15'5 4.6
2017-Mar-21 21:33N 49°17' W 000°15'0 0.0
2017-Mar-21 20:33N 49°17' W 000°15'1111.3
2017-Mar-21 19:33N 49°28' W 000°20'1919.4
2017-Mar-21 18:34N 49°46' W 000°29'1919.4
2017-Mar-21 17:33N 50°05' W 000°39'2719.2
2017-Mar-21 16:09N 50°30' W 000°54'1119.2
2017-Mar-21 15:34N 50°41' W 000°60'9 8.7
2017-Mar-21 14:33N 50°49' W 001°06'0 0.0
2017-Mar-21 13:33N 50°49' W 001°06'5 5.2
2017-Mar-21 12:33N 50°44' W 001°03'4118.7
2017-Mar-21 10:20N 50°05' W 000°40'1519.5
2017-Mar-21 09:33N 49°51' W 000°33'1919.1
2017-Mar-21 08:33N 49°33' W 000°21'1616.2
2017-Mar-21 07:33N 49°17' W 000°15'0 0.0
2017-Mar-21 06:33N 49°17' W 000°15'0 0.1
2017-Mar-21 05:33N 49°17' W 000°15'1615.6
2017-Mar-21 04:33N 49°33' W 000°19'1817.6
2017-Mar-21 03:33N 49°49' W 000°28'1616.5
2017-Mar-21 02:33N 50°05' W 000°37'3115.6
2017-Mar-21 00:34N 50°34' W 000°53'1515.0
2017-Mar-20 23:33N 50°47' W 001°06'2 1.9
2017-Mar-20 22:33N 50°49' W 001°06'0 0.0
2017-Mar-20 21:34N 50°49' W 001°06'6 6.4
2017-Mar-20 20:33N 50°43' W 001°01'1614.7
2017-Mar-20 19:27N 50°28' W 000°54'1719.1
2017-Mar-20 18:33N 50°11' W 000°45'2019.8
2017-Mar-20 17:34N 49°54' W 000°31'2020.2
2017-Mar-20 16:33N 49°34' W 000°22'1817.7
2017-Mar-20 15:34N 49°17' W 000°15'0 0.0
2017-Mar-20 14:33N 49°17' W 000°15'0 0.1
2017-Mar-20 13:33N 49°17' W 000°15'1817.5
2017-Mar-20 12:34N 49°34' W 000°21'2020.3
2017-Mar-20 11:34N 49°53' W 000°32'4019.9
2017-Mar-20 09:33N 50°31' W 000°54'1817.6
2017-Mar-20 08:33N 50°47' W 001°06'2 2.2
2017-Mar-20 07:33N 50°49' W 001°06'0 0.1
2017-Mar-20 06:34N 50°49' W 001°06'1212.0
2017-Mar-20 05:33N 50°38' W 000°58'3611.9
2017-Mar-20 02:33N 50°05' W 000°34'1111.3
2017-Mar-20 01:33N 49°55' W 000°28'1111.3
2017-Mar-20 00:33N 49°44' W 000°22'1211.6
2017-Mar-19 23:33N 49°33' W 000°20'1211.6
2017-Mar-19 22:33N 49°22' W 000°15'4 4.2
2017-Mar-19 21:33N 49°17' W 000°15'0 0.0
2017-Mar-19 20:33N 49°17' W 000°15'1111.2
2017-Mar-19 19:34N 49°28' W 000°18'1918.7
2017-Mar-19 18:34N 49°46' W 000°28'1817.8
2017-Mar-19 17:34N 50°03' W 000°37'1919.2
2017-Mar-19 16:34N 50°21' W 000°46'2019.7
2017-Mar-19 15:34N 50°39' W 000°59'1110.6
2017-Mar-19 14:33N 50°49' W 001°06'0 0.0
2017-Mar-19 13:33N 50°49' W 001°06'5 5.0
2017-Mar-19 12:33N 50°44' W 001°03'1818.1
2017-Mar-19 11:33N 50°28' W 000°50'2219.2
2017-Mar-19 10:23N 50°07' W 000°39'1619.4
2017-Mar-19 09:33N 49°51' W 000°32'2019.7
2017-Mar-19 08:33N 49°33' W 000°22'1615.8
2017-Mar-19 07:34N 49°17' W 000°15'0 0.0
2017-Mar-19 06:33N 49°17' W 000°15'0 0.0
2017-Mar-19 05:33N 49°17' W 000°15'1514.6
2017-Mar-19 04:34N 49°32' W 000°20'1615.8
2017-Mar-19 03:33N 49°46' W 000°29'1515.3
2017-Mar-19 02:33N 49°59' W 000°41'3014.2
2017-Mar-19 00:26N 50°28' W 000°52'1315.3
2017-Mar-18 23:33N 50°41' W 001°01'9 8.6
2017-Mar-18 22:33N 50°49' W 001°06'0 0.0
2017-Mar-18 21:33N 50°49' W 001°06'5 4.6
2017-Mar-18 20:33N 50°44' W 001°04'1717.2
2017-Mar-18 19:33N 50°29' W 000°52'2218.3
2017-Mar-18 18:22N 50°08' W 000°42'1518.4
2017-Mar-18 17:33N 49°54' W 000°34'1919.3
2017-Mar-18 16:33N 49°36' W 000°23'1919.3
2017-Mar-18 15:33N 49°18' W 000°15'0 0.3
2017-Mar-18 14:33N 49°17' W 000°15'2 1.8
2017-Mar-18 13:33N 49°19' W 000°15'1818.4
2017-Mar-18 12:33N 49°37' W 000°22'2020.2
2017-Mar-18 11:33N 49°56' W 000°33'4120.4
2017-Mar-18 09:33N 50°34' W 000°56'1615.8
2017-Mar-18 08:34N 50°48' W 001°07'1 0.9
2017-Mar-18 07:34N 50°49' W 001°06'0 0.1
2017-Mar-18 06:34N 50°49' W 001°06'1212.1
2017-Mar-18 05:33N 50°37' W 000°59'4212.9
2017-Mar-18 02:19N 49°59' W 000°34'7 9.4
2017-Mar-18 01:33N 49°53' W 000°29'1010.4
2017-Mar-18 00:33N 49°43' W 000°25'1110.7
2017-Mar-17 23:33N 49°32' W 000°20'1010.3
2017-Mar-17 22:33N 49°22' W 000°15'5 5.1
2017-Mar-17 21:33N 49°17' W 000°15'0 0.0
2017-Mar-17 20:33N 49°17' W 000°15'1111.0
2017-Mar-17 19:33N 49°28' W 000°17'2019.6
2017-Mar-17 18:33N 49°46' W 000°30'1919.2
2017-Mar-17 17:33N 50°04' W 000°39'2819.0
2017-Mar-17 16:04N 50°31' W 000°53'1019.3
2017-Mar-17 15:33N 50°40' W 000°60'10 9.6
2017-Mar-17 14:34N 50°49' W 001°06'0 0.0
2017-Mar-17 13:33N 50°49' W 001°06'9 8.8
2017-Mar-17 12:34N 50°41' W 000°59'2719.4
2017-Mar-17 11:11N 50°16' W 000°45'1318.9
2017-Mar-17 10:29N 50°04' W 000°38'1718.8
2017-Mar-17 09:34N 49°47' W 000°29'1918.8
2017-Mar-17 08:33N 49°29' W 000°19'1212.3
2017-Mar-17 07:33N 49°17' W 000°15'  
Track history (hours):
 
Tides and Currents Weather Stations Pressure Air Temp Water Temp Dewpoint Dewpoint Depression Visibility Wind Speed Wind Dir Waves Ship Positions

Normandie

Operator: Brittany Ferries

Last reported at 2017-Mar-27 06:33 UTC. Time now 2017-Mar-27 06:50 UTC.
Position N 50°49' W 001°06'.

Length 161 m; beam 27 m.

Type: Passenger vessel. MMSI: 227273000.

Date/timePositionNaut miles runAvg speedWind from/ knotsBaromVisibWave heightAir tempDewpointWater temp
2017-Mar-27 06:33N 50°49' W 001°06'3 2.9
2017-Mar-27 05:34N 50°46' W 001°05'10 9.8
2017-Mar-27 04:33N 50°37' W 000°58'1514.6
2017-Mar-27 03:33N 50°24' W 000°49'1110.8
2017-Mar-27 02:33N 50°13' W 000°45'1111.0
2017-Mar-27 01:33N 50°03' W 000°41'1111.4
2017-Mar-27 00:33N 49°51' W 000°38'1110.9
2017-Mar-26 23:33N 49°44' W 000°26'1111.0
2017-Mar-26 22:33N 49°33' W 000°21'1110.8
2017-Mar-26 21:33N 49°23' W 000°16'6 5.7
2017-Mar-26 20:33N 49°17' W 000°15'0 0.0
2017-Mar-26 19:33N 49°17' W 000°15'1110.8
2017-Mar-26 18:33N 49°28' W 000°17'1919.1
2017-Mar-26 17:33N 49°46' W 000°26'1919.3
2017-Mar-26 16:34N 50°04' W 000°36'2019.9
2017-Mar-26 15:33N 50°23' W 000°48'1919.1
2017-Mar-26 14:33N 50°41' W 000°58'9 9.2
2017-Mar-26 13:33N 50°49' W 001°06'0 0.1
2017-Mar-26 12:34N 50°49' W 001°06'1313.1
2017-Mar-26 11:33N 50°37' W 000°57'2320.0
2017-Mar-26 10:26N 50°15' W 000°46'1919.9
2017-Mar-26 09:28N 49°58' W 000°35'1819.5
2017-Mar-26 08:33N 49°41' W 000°25'1919.5
2017-Mar-26 07:33N 49°22' W 000°15'5 5.1
2017-Mar-26 06:33N 49°17' W 000°15'0 0.1
2017-Mar-26 05:33N 49°17' W 000°15'1413.9
2017-Mar-26 04:33N 49°31' W 000°19'1515.1
2017-Mar-26 03:34N 49°45' W 000°28'1414.0
2017-Mar-26 02:33N 49°58' W 000°36'1414.4
2017-Mar-26 01:33N 50°11' W 000°43'1714.8
2017-Mar-26 00:26N 50°28' W 000°48'1314.5
2017-Mar-25 23:33N 50°40' W 000°56'1111.1
2017-Mar-25 22:33N 50°49' W 001°06'0 0.0
2017-Mar-25 21:34N 50°49' W 001°06'7 7.1
2017-Mar-25 20:34N 50°42' W 001°01'3918.9
2017-Mar-25 18:29N 50°06' W 000°38'1718.1
2017-Mar-25 17:33N 49°50' W 000°31'1817.9
2017-Mar-25 16:34N 49°33' W 000°22'1616.2
2017-Mar-25 15:33N 49°17' W 000°15'0 0.1
2017-Mar-25 14:33N 49°17' W 000°15'1 0.8
2017-Mar-25 13:34N 49°18' W 000°15'1817.7
2017-Mar-25 12:34N 49°35' W 000°21'1918.6
2017-Mar-25 11:33N 49°52' W 000°33'1918.8
2017-Mar-25 10:34N 50°10' W 000°44'1918.7
2017-Mar-25 09:33N 50°28' W 000°53'1918.9
2017-Mar-25 08:34N 50°45' W 001°05'4 3.9
2017-Mar-25 07:33N 50°49' W 001°06'0 0.1
2017-Mar-25 06:33N 50°49' W 001°06'1212.5
2017-Mar-25 05:34N 50°37' W 000°58'1815.7
2017-Mar-25 04:26N 50°21' W 000°47'1211.9
2017-Mar-25 03:23N 50°09' W 000°41'910.4
2017-Mar-25 02:33N 50°01' W 000°36'1010.3
2017-Mar-25 01:33N 49°51' W 000°32'1110.7
2017-Mar-25 00:33N 49°41' W 000°26'1110.7
2017-Mar-24 23:33N 49°31' W 000°20'1110.7
2017-Mar-24 22:33N 49°21' W 000°15'4 3.8
2017-Mar-24 21:33N 49°17' W 000°15'0 0.0
2017-Mar-24 20:33N 49°17' W 000°15'1110.7
2017-Mar-24 19:34N 49°28' W 000°17'1818.2
2017-Mar-24 18:34N 49°45' W 000°27'2019.7
2017-Mar-24 17:34N 50°03' W 000°38'2520.0
2017-Mar-24 16:19N 50°27' W 000°51'1519.4
2017-Mar-24 15:34N 50°41' W 000°58'9 9.3
2017-Mar-24 14:33N 50°49' W 001°06'0 0.0
2017-Mar-24 13:34N 50°49' W 001°06'4 4.2
2017-Mar-24 12:33N 50°45' W 001°05'1817.6
2017-Mar-24 11:33N 50°29' W 000°52'2119.2
2017-Mar-24 10:29N 50°09' W 000°43'1819.8
2017-Mar-24 09:33N 49°52' W 000°33'1919.5
2017-Mar-24 08:33N 49°34' W 000°22'1717.0
2017-Mar-24 07:34N 49°17' W 000°15'0 0.0
2017-Mar-24 06:33N 49°17' W 000°15'0 0.0
2017-Mar-24 05:33N 49°17' W 000°15'1414.2
2017-Mar-24 04:34N 49°31' W 000°20'1615.8
2017-Mar-24 03:34N 49°46' W 000°28'1615.8
2017-Mar-24 02:34N 50°01' W 000°36'3316.7
2017-Mar-24 00:33N 50°32' W 000°55'1616.0
2017-Mar-23 23:33N 50°47' W 001°06'2 2.1
2017-Mar-23 22:33N 50°49' W 001°06'0 0.0
2017-Mar-23 21:33N 50°49' W 001°06'1110.5
2017-Mar-23 20:33N 50°39' W 000°59'3919.2
2017-Mar-23 18:31N 50°02' W 000°36'1818.9
2017-Mar-23 17:34N 49°46' W 000°27'1919.4
2017-Mar-23 16:33N 49°27' W 000°17'10 9.9
2017-Mar-23 15:33N 49°17' W 000°15'0 0.0
2017-Mar-23 14:33N 49°17' W 000°15'0 0.5
2017-Mar-23 13:33N 49°18' W 000°15'1818.2
2017-Mar-23 12:33N 49°35' W 000°23'1919.3
2017-Mar-23 11:34N 49°53' W 000°34'4119.8
2017-Mar-23 09:30N 50°31' W 000°55'1717.9
2017-Mar-23 08:33N 50°47' W 001°06'2 1.8
2017-Mar-23 07:33N 50°49' W 001°06'0 0.0
2017-Mar-23 06:34N 50°49' W 001°06'1111.0
2017-Mar-23 05:33N 50°39' W 000°59'3511.8
2017-Mar-23 02:33N 50°06' W 000°37'1111.4
2017-Mar-23 01:33N 49°55' W 000°32'1212.1
2017-Mar-23 00:33N 49°43' W 000°27'1212.1
2017-Mar-22 23:33N 49°32' W 000°21'1212.1
2017-Mar-22 22:33N 49°21' W 000°15'3 3.3
2017-Mar-22 21:33N 49°17' W 000°15'0 0.0
2017-Mar-22 20:33N 49°17' W 000°15'0 0.0
2017-Mar-22 19:33N 49°17' W 000°15'0 0.0
2017-Mar-22 18:34N 49°17' W 000°15'0 0.0
2017-Mar-22 17:34N 49°17' W 000°15'0 0.0
2017-Mar-22 16:33N 49°17' W 000°15'0 0.0
2017-Mar-22 15:33N 49°17' W 000°15'0 0.0
2017-Mar-22 14:33N 49°17' W 000°15'4 3.7
2017-Mar-22 13:33N 49°21' W 000°14'1717.3
2017-Mar-22 12:34N 49°37' W 000°24'2019.6
2017-Mar-22 11:33N 49°55' W 000°36'3919.2
2017-Mar-22 09:32N 50°32' W 000°55'1717.1
2017-Mar-22 08:33N 50°47' W 001°06'2 1.7
2017-Mar-22 07:34N 50°49' W 001°06'0 0.0
2017-Mar-22 06:34N 50°49' W 001°06'1111.0
2017-Mar-22 05:33N 50°39' W 000°58'3912.5
2017-Mar-22 02:26N 50°03' W 000°36'910.7
2017-Mar-22 01:33N 49°54' W 000°31'1110.8
2017-Mar-22 00:33N 49°44' W 000°25'1111.2
2017-Mar-21 23:33N 49°33' W 000°21'1111.4
2017-Mar-21 22:33N 49°22' W 000°15'5 4.6
2017-Mar-21 21:33N 49°17' W 000°15'0 0.0
2017-Mar-21 20:33N 49°17' W 000°15'1111.3
2017-Mar-21 19:33N 49°28' W 000°20'1919.4
2017-Mar-21 18:34N 49°46' W 000°29'1919.4
2017-Mar-21 17:33N 50°05' W 000°39'2719.2
2017-Mar-21 16:09N 50°30' W 000°54'1119.2
2017-Mar-21 15:34N 50°41' W 000°60'9 8.7
2017-Mar-21 14:33N 50°49' W 001°06'0 0.0
2017-Mar-21 13:33N 50°49' W 001°06'5 5.2
2017-Mar-21 12:33N 50°44' W 001°03'4118.7
2017-Mar-21 10:20N 50°05' W 000°40'1519.5
2017-Mar-21 09:33N 49°51' W 000°33'1919.1
2017-Mar-21 08:33N 49°33' W 000°21'1616.2
2017-Mar-21 07:33N 49°17' W 000°15'0 0.0
2017-Mar-21 06:33N 49°17' W 000°15'0 0.1
2017-Mar-21 05:33N 49°17' W 000°15'1615.6
2017-Mar-21 04:33N 49°33' W 000°19'1817.6
2017-Mar-21 03:33N 49°49' W 000°28'1616.5
2017-Mar-21 02:33N 50°05' W 000°37'3115.6
2017-Mar-21 00:34N 50°34' W 000°53'1515.0
2017-Mar-20 23:33N 50°47' W 001°06'2 1.9
2017-Mar-20 22:33N 50°49' W 001°06'0 0.0
2017-Mar-20 21:34N 50°49' W 001°06'6 6.4
2017-Mar-20 20:33N 50°43' W 001°01'1614.7
2017-Mar-20 19:27N 50°28' W 000°54'1719.1
2017-Mar-20 18:33N 50°11' W 000°45'2019.8
2017-Mar-20 17:34N 49°54' W 000°31'2020.2
2017-Mar-20 16:33N 49°34' W 000°22'1817.7
2017-Mar-20 15:34N 49°17' W 000°15'0 0.0
2017-Mar-20 14:33N 49°17' W 000°15'0 0.1
2017-Mar-20 13:33N 49°17' W 000°15'1817.5
2017-Mar-20 12:34N 49°34' W 000°21'2020.3
2017-Mar-20 11:34N 49°53' W 000°32'4019.9
2017-Mar-20 09:33N 50°31' W 000°54'1817.6
2017-Mar-20 08:33N 50°47' W 001°06'2 2.2
2017-Mar-20 07:33N 50°49' W 001°06'0 0.1
2017-Mar-20 06:34N 50°49' W 001°06'1212.0
2017-Mar-20 05:33N 50°38' W 000°58'3611.9
2017-Mar-20 02:33N 50°05' W 000°34'1111.3
2017-Mar-20 01:33N 49°55' W 000°28'1111.3
2017-Mar-20 00:33N 49°44' W 000°22'1211.6
2017-Mar-19 23:33N 49°33' W 000°20'1211.6
2017-Mar-19 22:33N 49°22' W 000°15'4 4.2
2017-Mar-19 21:33N 49°17' W 000°15'0 0.0
2017-Mar-19 20:33N 49°17' W 000°15'1111.2
2017-Mar-19 19:34N 49°28' W 000°18'1918.7
2017-Mar-19 18:34N 49°46' W 000°28'1817.8
2017-Mar-19 17:34N 50°03' W 000°37'1919.2
2017-Mar-19 16:34N 50°21' W 000°46'2019.7
2017-Mar-19 15:34N 50°39' W 000°59'1110.6
2017-Mar-19 14:33N 50°49' W 001°06'0 0.0
2017-Mar-19 13:33N 50°49' W 001°06'5 5.0
2017-Mar-19 12:33N 50°44' W 001°03'1818.1
2017-Mar-19 11:33N 50°28' W 000°50'2219.2
2017-Mar-19 10:23N 50°07' W 000°39'1619.4
2017-Mar-19 09:33N 49°51' W 000°32'2019.7
2017-Mar-19 08:33N 49°33' W 000°22'1615.8
2017-Mar-19 07:34N 49°17' W 000°15'0 0.0
2017-Mar-19 06:33N 49°17' W 000°15'0 0.0
2017-Mar-19 05:33N 49°17' W 000°15'1514.6
2017-Mar-19 04:34N 49°32' W 000°20'1615.8
2017-Mar-19 03:33N 49°46' W 000°29'1515.3
2017-Mar-19 02:33N 49°59' W 000°41'3014.2
2017-Mar-19 00:26N 50°28' W 000°52'1315.3
2017-Mar-18 23:33N 50°41' W 001°01'9 8.6
2017-Mar-18 22:33N 50°49' W 001°06'0 0.0
2017-Mar-18 21:33N 50°49' W 001°06'5 4.6
2017-Mar-18 20:33N 50°44' W 001°04'1717.2
2017-Mar-18 19:33N 50°29' W 000°52'2218.3
2017-Mar-18 18:22N 50°08' W 000°42'1518.4
2017-Mar-18 17:33N 49°54' W 000°34'1919.3
2017-Mar-18 16:33N 49°36' W 000°23'1919.3
2017-Mar-18 15:33N 49°18' W 000°15'0 0.3
2017-Mar-18 14:33N 49°17' W 000°15'2 1.8
2017-Mar-18 13:33N 49°19' W 000°15'1818.4
2017-Mar-18 12:33N 49°37' W 000°22'2020.2
2017-Mar-18 11:33N 49°56' W 000°33'4120.4
2017-Mar-18 09:33N 50°34' W 000°56'1615.8
2017-Mar-18 08:34N 50°48' W 001°07'1 0.9
2017-Mar-18 07:34N 50°49' W 001°06'0 0.1
2017-Mar-18 06:34N 50°49' W 001°06'1212.1
2017-Mar-18 05:33N 50°37' W 000°59'4212.9
2017-Mar-18 02:19N 49°59' W 000°34'7 9.4
2017-Mar-18 01:33N 49°53' W 000°29'1010.4
2017-Mar-18 00:33N 49°43' W 000°25'1110.7
2017-Mar-17 23:33N 49°32' W 000°20'1010.3
2017-Mar-17 22:33N 49°22' W 000°15'5 5.1
2017-Mar-17 21:33N 49°17' W 000°15'0 0.0
2017-Mar-17 20:33N 49°17' W 000°15'1111.0
2017-Mar-17 19:33N 49°28' W 000°17'2019.6
2017-Mar-17 18:33N 49°46' W 000°30'1919.2
2017-Mar-17 17:33N 50°04' W 000°39'2819.0
2017-Mar-17 16:04N 50°31' W 000°53'1019.3
2017-Mar-17 15:33N 50°40' W 000°60'10 9.6
2017-Mar-17 14:34N 50°49' W 001°06'0 0.0
2017-Mar-17 13:33N 50°49' W 001°06'9 8.8
2017-Mar-17 12:34N 50°41' W 000°59'2719.4
2017-Mar-17 11:11N 50°16' W 000°45'1318.9
2017-Mar-17 10:29N 50°04' W 000°38'1718.8
2017-Mar-17 09:34N 49°47' W 000°29'1918.8
2017-Mar-17 08:33N 49°29' W 000°19'1212.3
2017-Mar-17 07:33N 49°17' W 000°15'  

Dump ship's entire track history